createdAt,value
2019-01-11T00:02:21.332Z,101856.53
2019-01-11T00:07:27.799Z,101849.56
2019-01-11T00:12:34.244Z,101854.99
2019-01-11T00:17:40.669Z,101842.23
2019-01-11T00:22:46.746Z,101842.61
2019-01-11T00:27:53.132Z,101837.53
2019-01-11T00:32:59.623Z,101838.02
2019-01-11T00:38:06.930Z,101817.91
2019-01-11T00:43:15.221Z,101815.94
2019-01-11T00:48:21.236Z,101813.86
2019-01-11T00:53:27.394Z,101818.03
2019-01-11T00:58:33.689Z,101824.05
2019-01-11T01:03:40.080Z,101812.90
2019-01-11T01:08:46.459Z,101813.99
2019-01-11T01:13:52.602Z,101802.69
2019-01-11T01:18:58.899Z,101801.08
2019-01-11T01:24:05.989Z,101795.31
2019-01-11T01:29:12.394Z,101789.80
2019-01-11T01:34:18.645Z,101780.70
2019-01-11T01:39:24.954Z,101769.50
2019-01-11T01:44:31.102Z,101761.05
2019-01-11T01:49:37.189Z,101762.24
2019-01-11T01:54:43.490Z,101758.14
2019-01-11T01:59:49.969Z,101753.18
2019-01-11T02:04:57.462Z,101735.30
2019-01-11T02:10:04.167Z,101734.72
2019-01-11T02:15:12.187Z,101730.07
2019-01-11T02:20:19.092Z,101710.02
2019-01-11T02:25:25.470Z,101703.12
2019-01-11T02:30:31.782Z,101691.39
2019-01-11T02:35:38.132Z,101692.89
2019-01-11T02:40:45.611Z,101683.16
2019-01-11T02:45:51.815Z,101668.51
2019-01-11T02:50:57.861Z,101667.83
2019-01-11T02:56:04.065Z,101669.28
2019-01-11T03:01:10.125Z,101659.19
2019-01-11T03:06:16.219Z,101639.19
2019-01-11T03:11:22.503Z,101633.28
2019-01-11T03:16:29.093Z,101615.16
2019-01-11T03:21:35.377Z,101613.37
2019-01-11T03:26:41.748Z,101612.05
2019-01-11T03:31:47.699Z,101608.47
2019-01-11T03:36:53.898Z,101598.17
2019-01-11T03:42:01.920Z,101593.86
2019-01-11T03:47:08.269Z,101593.13
2019-01-11T03:52:14.259Z,101580.28
2019-01-11T03:57:20.462Z,101574.50
2019-01-11T04:02:26.516Z,101575.13
2019-01-11T04:07:32.815Z,101565.53
2019-01-11T04:12:38.820Z,101563.23
2019-01-11T04:17:45.047Z,101557.23
2019-01-11T04:22:52.747Z,101549.66
2019-01-11T04:27:59.087Z,101543.33
2019-01-11T04:33:05.930Z,101538.55
2019-01-11T04:38:12.213Z,101522.17
2019-01-11T04:43:18.613Z,101516.14
2019-01-11T04:48:24.998Z,101514.59
2019-01-11T04:53:31.152Z,101500.92
2019-01-11T04:58:37.461Z,101500.02
2019-01-11T05:03:43.427Z,101491.94
2019-01-11T05:08:49.525Z,101487.16
2019-01-11T05:13:55.934Z,101484.55
2019-01-11T05:19:02.363Z,101468.61
2019-01-11T05:24:08.434Z,101458.33
2019-01-11T05:29:14.734Z,101447.61
2019-01-11T05:34:20.794Z,101437.06
2019-01-11T05:39:26.656Z,101447.31
2019-01-11T05:44:32.620Z,101433.05
2019-01-11T05:49:38.881Z,101424.56
2019-01-11T05:54:45.000Z,101413.36
2019-01-11T05:59:51.801Z,101403.67
2019-01-11T06:04:59.586Z,101399.42
2019-01-11T06:10:11.735Z,101383.14
2019-01-11T06:15:18.144Z,101382.69
2019-01-11T06:20:30.232Z,101376.93
2019-01-11T06:25:32.400Z,101381.42
2019-01-11T06:30:38.691Z,101380.31
2019-01-11T06:35:44.651Z,101374.01
2019-01-11T06:40:50.929Z,101373.52
2019-01-11T06:45:57.111Z,101362.20
2019-01-11T06:51:03.284Z,101357.16
2019-01-11T06:56:09.568Z,101349.12
2019-01-11T07:01:16.068Z,101346.70
2019-01-11T07:06:22.329Z,101343.67
2019-01-11T07:11:28.444Z,101327.02
2019-01-11T07:16:34.714Z,101325.77
2019-01-11T07:21:41.586Z,101313.41
2019-01-11T07:26:47.746Z,101318.27
2019-01-11T07:31:54.242Z,101313.41
2019-01-11T07:37:00.201Z,101312.86
2019-01-11T07:42:06.292Z,101318.64
2019-01-11T07:47:13.408Z,101301.67
2019-01-11T07:52:19.593Z,101298.08
2019-01-11T07:57:25.744Z,101264.02
2019-01-11T08:02:32.558Z,101255.89
2019-01-11T08:07:39.146Z,101250.34
2019-01-11T08:12:45.619Z,101225.23
2019-01-11T08:17:51.713Z,101216.02
2019-01-11T08:22:57.870Z,101203.25
2019-01-11T08:28:04.160Z,101182.89
2019-01-11T08:33:10.649Z,101173.33
2019-01-11T08:38:17.038Z,101156.70
2019-01-11T08:43:23.298Z,101143.34
2019-01-11T08:48:30.628Z,101129.32
2019-01-11T08:53:36.996Z,101130.67
2019-01-11T08:58:43.788Z,101114.09
2019-01-11T09:03:49.838Z,101099.80
2019-01-11T09:08:56.050Z,101090.22
2019-01-11T09:14:03.541Z,101092.37
2019-01-11T09:19:09.956Z,101078.23
2019-01-11T09:24:16.180Z,101077.55
2019-01-11T09:29:22.607Z,101047.50
2019-01-11T09:34:29.021Z,101043.05
2019-01-11T09:39:35.163Z,101038.30
2019-01-11T09:44:41.215Z,101020.98
2019-01-11T09:49:47.408Z,101006.10
2019-01-11T09:54:53.569Z,101003.91
2019-01-11T09:59:59.853Z,100995.77
2019-01-11T10:05:08.184Z,100985.84
2019-01-11T10:10:15.388Z,100974.75
2019-01-11T10:15:21.887Z,100965.73
2019-01-11T10:20:28.358Z,100953.77
2019-01-11T10:25:34.574Z,100937.80
2019-01-11T10:30:40.727Z,100930.39
2019-01-11T10:35:48.136Z,100903.35
2019-01-11T10:40:55.321Z,100910.73
2019-01-11T10:46:02.921Z,100896.00
2019-01-11T10:51:09.134Z,100888.59
2019-01-11T10:56:15.280Z,100882.75
2019-01-11T11:01:21.159Z,100873.14
2019-01-11T11:06:27.118Z,100858.09
2019-01-11T11:11:33.101Z,100849.09
2019-01-11T11:16:39.148Z,100851.85
2019-01-11T11:21:45.162Z,100835.52
2019-01-11T11:26:51.241Z,100811.43
2019-01-11T11:31:57.307Z,100793.07
2019-01-11T11:37:03.171Z,100790.78
2019-01-11T11:42:09.152Z,100793.31
2019-01-11T11:47:15.350Z,100785.20
2019-01-11T11:52:21.685Z,100765.02
2019-01-11T11:57:27.777Z,100744.80
2019-01-11T12:02:34.395Z,100737.97
2019-01-11T12:07:40.886Z,100728.03
2019-01-11T12:12:49.838Z,100727.34
2019-01-11T12:17:56.096Z,100726.42
2019-01-11T12:23:02.180Z,100709.02
2019-01-11T12:28:08.280Z,100702.02
2019-01-11T12:33:14.808Z,100692.91
2019-01-11T12:38:21.113Z,100679.73
2019-01-11T12:43:27.500Z,100665.70
2019-01-11T12:48:33.662Z,100657.36
2019-01-11T12:53:39.531Z,100643.36
2019-01-11T12:58:45.729Z,100617.05
2019-01-11T13:03:51.882Z,100615.91
2019-01-11T13:08:58.185Z,100611.34
2019-01-11T13:14:04.777Z,100595.33
2019-01-11T13:19:11.166Z,100597.69
2019-01-11T13:24:17.316Z,100598.87
2019-01-11T13:29:23.712Z,100592.05
2019-01-11T13:34:30.314Z,100580.47
2019-01-11T13:39:37.990Z,100567.45
2019-01-11T13:44:44.169Z,100566.24
2019-01-11T13:49:50.472Z,100575.17
2019-01-11T13:54:56.625Z,100560.45
2019-01-11T14:00:03.924Z,100547.34
2019-01-11T14:05:10.619Z,100535.05
2019-01-11T14:10:16.708Z,100527.47
2019-01-11T14:15:22.515Z,100521.22
2019-01-11T14:20:28.879Z,100524.26
2019-01-11T14:25:35.269Z,100525.40
2019-01-11T14:30:41.541Z,100513.89
2019-01-11T14:35:48.158Z,100488.66
2019-01-11T14:40:54.603Z,100482.05
2019-01-11T14:46:00.816Z,100492.27
2019-01-11T14:51:08.493Z,100482.77
2019-01-11T14:56:14.701Z,100474.91
2019-01-11T15:01:20.956Z,100462.52
2019-01-11T15:06:26.962Z,100455.93
2019-01-11T15:11:33.310Z,100448.66
2019-01-11T15:16:39.683Z,100434.70
2019-01-11T15:21:45.904Z,100421.77
2019-01-11T15:26:52.261Z,100405.74
2019-01-11T15:31:58.629Z,100432.24
2019-01-11T15:37:05.584Z,100427.97
2019-01-11T15:42:11.822Z,100438.56
2019-01-11T15:47:18.118Z,100432.20
2019-01-11T15:52:23.977Z,100420.55
2019-01-11T15:57:42.036Z,100412.36
2019-01-11T16:02:48.200Z,100402.36
2019-01-11T16:07:54.583Z,100384.91
2019-01-11T16:13:02.434Z,100383.62
2019-01-11T16:18:16.692Z,100395.00
2019-01-11T16:23:23.162Z,100388.14
2019-01-11T16:28:30.032Z,100376.19
2019-01-11T16:33:36.121Z,100384.30
2019-01-11T16:38:42.085Z,100381.20
2019-01-11T16:43:48.475Z,100378.30
2019-01-11T16:48:54.828Z,100372.49
2019-01-11T16:54:00.814Z,100360.59
2019-01-11T16:59:07.533Z,100360.25
2019-01-11T17:04:13.840Z,100351.88
2019-01-11T17:09:19.840Z,100339.73
2019-01-11T17:14:26.253Z,100337.45
2019-01-11T17:19:32.315Z,100341.47
2019-01-11T17:24:38.499Z,100347.44
2019-01-11T17:29:47.211Z,100349.64
2019-01-11T17:34:52.080Z,100343.03
2019-01-11T17:39:58.208Z,100349.20
2019-01-11T17:45:06.496Z,100354.11
2019-01-11T17:50:15.143Z,100351.21
2019-01-11T17:55:21.460Z,100344.88
2019-01-11T18:00:27.684Z,100342.64
2019-01-11T18:05:34.190Z,100344.55
2019-01-11T18:10:41.200Z,100336.44
2019-01-11T18:15:47.664Z,100338.62
2019-01-11T18:20:54.160Z,100357.83
2019-01-11T18:26:00.634Z,100363.47
2019-01-11T18:31:07.022Z,100368.69
2019-01-11T18:36:13.085Z,100362.18
2019-01-11T18:41:19.239Z,100377.19
2019-01-11T18:46:25.555Z,100361.38
2019-01-11T18:51:31.586Z,100371.17
2019-01-11T18:56:37.581Z,100383.37
2019-01-11T19:01:43.786Z,100383.72
2019-01-11T19:06:50.229Z,100370.95
2019-01-11T19:11:56.550Z,100391.31
2019-01-11T19:17:02.951Z,100385.12
2019-01-11T19:22:09.468Z,100393.41
2019-01-11T19:27:15.911Z,100403.20
2019-01-11T19:32:23.498Z,100403.06
2019-01-11T19:37:29.586Z,100406.50
2019-01-11T19:42:35.985Z,100403.67
2019-01-11T19:47:42.117Z,100409.28
2019-01-11T19:52:48.342Z,100413.42
2019-01-11T19:57:54.381Z,100417.58
2019-01-11T20:03:01.700Z,100421.30
2019-01-11T20:08:09.534Z,100433.87
2019-01-11T20:13:17.680Z,100448.34
2019-01-11T20:18:24.647Z,100446.00
2019-01-11T20:23:34.892Z,100456.44
2019-01-11T20:28:38.954Z,100442.16
2019-01-11T20:33:45.117Z,100441.19
2019-01-11T20:38:50.975Z,100435.12
2019-01-11T20:43:56.839Z,100455.44
2019-01-11T20:49:02.994Z,100452.51
2019-01-11T20:54:09.902Z,100451.81
2019-01-11T20:59:16.340Z,100452.91
2019-01-11T21:04:22.606Z,100457.16
2019-01-11T21:09:28.800Z,100468.75
2019-01-11T21:14:35.133Z,100472.83
2019-01-11T21:19:41.417Z,100468.38
2019-01-11T21:24:47.782Z,100472.33
2019-01-11T21:29:54.194Z,100477.73
2019-01-11T21:35:00.481Z,100473.40
2019-01-11T21:40:09.133Z,100476.41
2019-01-11T21:45:15.608Z,100459.44
2019-01-11T21:50:24.680Z,100463.69
2019-01-11T21:55:31.245Z,100464.67
2019-01-11T22:00:39.277Z,100466.67
2019-01-11T22:05:45.883Z,100470.78
2019-01-11T22:10:52.417Z,100474.19
2019-01-11T22:15:58.850Z,100463.79
2019-01-11T22:21:05.206Z,100474.97
2019-01-11T22:26:11.803Z,100479.14
2019-01-11T22:31:17.885Z,100476.97
2019-01-11T22:36:24.584Z,100488.39
2019-01-11T22:41:30.886Z,100488.16
2019-01-11T22:46:37.319Z,100496.70
2019-01-11T22:51:44.546Z,100494.77
2019-01-11T22:56:51.236Z,100499.27
2019-01-11T23:02:01.564Z,100504.64
2019-01-11T23:07:10.914Z,100512.04
2019-01-11T23:12:25.105Z,100500.47
2019-01-11T23:17:37.101Z,100509.47
2019-01-11T23:22:43.512Z,100505.22
2019-01-11T23:27:49.991Z,100506.89
2019-01-11T23:32:56.376Z,100505.36
2019-01-11T23:38:03.061Z,100510.04
2019-01-11T23:43:09.449Z,100513.89
2019-01-11T23:48:15.630Z,100514.29
2019-01-11T23:53:21.698Z,100533.32
2019-01-11T23:58:27.831Z,100533.56
